METAR Data
IDs: Format: Raw Decoded Include TAF

Data at: 0842 UTC 07 Dec 2021

KCGC 070735Z AUTO 00000KT 1/4SM FG OVC002 18/18 A3006 RMK AO2
KCGC 070715Z AUTO 00000KT 1/4SM FG OVC002 18/17 A3007 RMK AO2
KCGC 070655Z AUTO 00000KT 1/4SM FG OVC002 18/18 A3007 RMK AO2
KCGC 070635Z AUTO 00000KT 1/4SM FG OVC002 17/17 A3007 RMK AO2
KCGC 070615Z AUTO 00000KT 1/4SM FG OVC002 17/17 A3008 RMK AO2
KCGC 070555Z AUTO 00000KT M1/4SM FG OVC002 17/17 A3008 RMK AO2
KCGC 070535Z AUTO 00000KT M1/4SM FG OVC002 17/17 A3009 RMK AO2
KCGC 070515Z AUTO 00000KT M1/4SM FG OVC002 17/17 A3009 RMK AO2
KCGC 070455Z AUTO 00000KT M1/4SM FG OVC002 17/17 A3010 RMK AO2
KCGC 070435Z AUTO 00000KT 1/4SM FG OVC002 17/17 A3010 RMK AO2
KCGC 070415Z AUTO 00000KT 1/4SM FG OVC002 17/17 A3011 RMK AO2
KCGC 070355Z AUTO 00000KT M1/4SM FG OVC002 17/17 A3011 RMK AO2
KCGC 070335Z AUTO 00000KT 1/4SM FG OVC002 17/17 A3011 RMK AO2
KCGC 070315Z AUTO 00000KT 1/4SM FG OVC002 17/17 A3011 RMK AO2
KCGC 070255Z AUTO 00000KT 1/4SM FG OVC002 17/17 A3011 RMK AO2
KCGC 070235Z AUTO 00000KT 1/4SM FG OVC002 17/17 A3011 RMK AO2
KCGC 070215Z AUTO 00000KT 1/4SM FG OVC002 17/17 A3011 RMK AO2
KCGC 070155Z AUTO 00000KT 1/2SM FG OVC002 17/17 A3011 RMK AO2
KCGC 070135Z AUTO 00000KT 1/2SM FG OVC002 17/17 A3011 RMK AO2
KCGC 070115Z AUTO 00000KT 1/4SM FG OVC002 18/17 A3011 RMK AO2
KCGC 070055Z AUTO 00000KT 1/4SM FG OVC002 18/17 A3011 RMK AO2
KCGC 070035Z AUTO 00000KT 1/4SM FG OVC002 18/17 A3011 RMK AO2
KCGC 070015Z AUTO 00000KT 1 1/4SM BR OVC002 18/17 A3010 RMK AO2
KCGC 062355Z AUTO 00000KT 5SM BR OVC002 18/17 A3010 RMK AO2 PNO
KCGC 062335Z AUTO 00000KT 2SM BR OVC002 18/17 A3010 RMK AO2
KCGC 062315Z AUTO 28003KT 1 1/2SM BR OVC002 18/17 A3009 RMK AO2
KCGC 062255Z AUTO 00000KT 1SM BR OVC002 17/17 A3009 RMK AO2
KCGC 062235Z AUTO 28005KT 1 1/4SM BR OVC002 18/17 A3010 RMK AO2
KCGC 062215Z AUTO 28004KT 2 1/2SM BR BKN004 18/17 A3009 RMK AO2 VIS 1V5
KCGC 062155Z AUTO 30004KT 10SM CLR 20/18 A3008 RMK AO2
KCGC 062135Z AUTO 28005KT 10SM SCT012 21/18 A3007 RMK AO2
KCGC 062115Z AUTO 25005KT 10SM SCT014 22/19 A3006 RMK AO2
KCGC 062055Z AUTO 26004KT 10SM CLR 23/19 A3006 RMK AO2
KCGC 062035Z AUTO 26007KT 10SM CLR 23/19 A3006 RMK AO2
KCGC 062015Z AUTO 25008KT 10SM CLR 23/19 A3006 RMK AO2
KCGC 061955Z AUTO 25008KT 10SM CLR 24/18 A3006 RMK AO2
KCGC 061935Z AUTO 23004KT 10SM SCT018 SCT023 24/18 A3006 RMK AO2
KCGC 061915Z AUTO 25007KT 10SM SCT016 25/19 A3007 RMK AO2
KCGC 061855Z AUTO 25009KT 10SM CLR 24/19 A3008 RMK AO2
KCGC 061835Z AUTO 25005KT 10SM CLR 24/19 A3008 RMK AO2
KCGC 061815Z AUTO 25006KT 10SM CLR 25/19 A3009 RMK AO2
KCGC 061755Z AUTO 24007KT 10SM CLR 25/18 A3009 RMK AO2
KCGC 061735Z AUTO 25009KT 10SM CLR 26/18 A3010 RMK AO2
KCGC 061715Z AUTO 24007KT 10SM CLR 26/18 A3011 RMK AO2
KCGC 061655Z AUTO 25005KT 10SM SCT023 25/18 A3011 RMK AO2
KCGC 061635Z AUTO 19005KT 10SM SCT021 25/18 A3012 RMK AO2
KCGC 061615Z AUTO 24005KT 10SM SCT017 24/18 A3013 RMK AO2
KCGC 061555Z AUTO 24003KT 10SM CLR 24/19 A3014 RMK AO2
KCGC 061535Z AUTO 18003KT 10SM CLR 23/19 RMK AO2 PNO
KCGC 061515Z AUTO 14003KT 10SM CLR 23/18 A3014 RMK AO2 LTG DSNT NW
KCGC 061455Z AUTO 00000KT 10SM 21/18 A3014 RMK AO2 PNO
KCGC 061415Z AUTO 16/15 RMK AO2 PWINO PNO TSNO
KCGC 061355Z AUTO 16/15 RMK AO2 PWINO PNO TSNO
KCGC 061335Z AUTO 10SM 15/14 RMK AO2 PNO
KCGC 061315Z AUTO 12/11 RMK AO2 PWINO PNO TSNO
KCGC 061255Z AUTO 12/11 RMK AO2
KCGC 061235Z AUTO 00000KT 10SM CLR 11/11 A3014 RMK AO2
KCGC 061215Z AUTO 00000KT 10SM CLR 11/10 A3014 RMK AO2
KCGC 061155Z AUTO 00000KT 10SM CLR 11/10 A3013 RMK AO2
KCGC 061135Z AUTO 00000KT 10SM BKN003 11/10 A3013 RMK AO2 PNO
KCGC 061115Z AUTO 00000KT 10SM BKN003 11/10 A3012 RMK AO2
KCGC 061055Z AUTO 00000KT 10SM SCT003 11/10 A3012 RMK AO2
KCGC 060435Z AUTO 12/12 RMK AO2 PWINO PNO TSNO
KCGC 060415Z AUTO 10SM CLR 12/12 RMK AO2
KCGC 060355Z AUTO 00000KT 10SM SCT055 13/12 A3016 RMK AO2 PNO TSNO
KCGC 060335Z AUTO 10SM SCT055 13/12 RMK AO2 PNO
KCGC 060315Z AUTO 00000KT 10SM SCT055 14/13 A3016 RMK AO2 PNO
KCGC 060255Z AUTO 13/12 RMK AO2 PNO
KCGC 060235Z AUTO 00000KT 10SM SCT050 14/13 A3015 RMK AO2
KCGC 060215Z AUTO 00000KT 10SM BKN049 14/13 A3015 RMK AO2
KCGC 060155Z AUTO 10SM SCT049 14/13 RMK AO2 PWINO PNO
KCGC 060135Z AUTO 00000KT 10SM SCT049 15/13 RMK AO2
KCGC 060115Z AUTO 00000KT 10SM SCT049 15/13 RMK AO2
KCGC 060055Z AUTO 00000KT 15/13 A3014 RMK AO2
KCGC 060035Z AUTO 00000KT 10SM CLR 15/13 RMK AO2 PNO
KCGC 060015Z AUTO 00000KT 10SM CLR 16/14 A3013 RMK AO2
KCGC 052355Z AUTO 00000KT 10SM CLR 16/14 A3012 RMK AO2 PNO
KCGC 052335Z AUTO 00000KT 10SM SCT055 17/14 RMK AO2 PNO
KCGC 052315Z AUTO 00000KT 10SM SCT055 18/14 A3012 RMK AO2
KCGC 052255Z AUTO 00000KT 10SM CLR 18/14 A3011 RMK AO2
KCGC 052235Z AUTO 27003KT 10SM CLR 20/14 A3011 RMK AO2
KCGC 052215Z AUTO 00000KT 10SM CLR 21/14 A3011 RMK AO2
KCGC 052155Z AUTO 27003KT 10SM CLR 22/14 A3011 RMK AO2
KCGC 052135Z AUTO 27004KT 10SM CLR 22/14 A3011 RMK AO2
KCGC 052115Z AUTO 28004KT 10SM CLR 23/15 A3011 RMK AO2
KCGC 052055Z AUTO 27004KT 10SM CLR 23/14 A3011 RMK AO2